createdAt,value
2022-09-16T00:01:44.195Z,13.71
2022-09-16T00:04:55.840Z,13.68
2022-09-16T00:08:07.823Z,13.64
2022-09-16T00:11:20.959Z,13.66
2022-09-16T00:14:32.743Z,13.72
2022-09-16T00:17:45.048Z,13.71
2022-09-16T00:20:58.760Z,13.72
2022-09-16T00:24:13.286Z,13.76
2022-09-16T00:27:25.782Z,13.80
2022-09-16T00:30:38.042Z,13.80
2022-09-16T00:33:50.191Z,13.82
2022-09-16T00:37:03.434Z,13.86
2022-09-16T00:40:16.892Z,13.87
2022-09-16T00:43:28.692Z,13.90
2022-09-16T00:46:46.440Z,13.93
2022-09-16T00:50:01.405Z,13.93
2022-09-16T00:53:17.310Z,13.90
2022-09-16T00:56:31.093Z,13.88
2022-09-16T00:59:47.177Z,13.93
2022-09-16T01:02:59.461Z,13.94
2022-09-16T01:06:14.116Z,13.97
2022-09-16T01:09:29.402Z,13.97
2022-09-16T01:12:42.487Z,13.96
2022-09-16T01:16:00.735Z,13.97
2022-09-16T01:19:17.377Z,13.97
2022-09-16T01:22:42.640Z,13.99
2022-09-16T01:26:07.246Z,13.97
2022-09-16T01:30:02.513Z,13.96
2022-09-16T01:33:22.037Z,13.99
2022-09-16T01:36:44.945Z,13.95
2022-09-16T01:40:03.328Z,13.97
2022-09-16T01:43:21.376Z,13.98
2022-09-16T01:46:40.676Z,13.95
2022-09-16T01:49:59.885Z,13.96
2022-09-16T01:53:16.902Z,13.91
2022-09-16T01:56:34.229Z,13.90
2022-09-16T01:59:50.629Z,13.82
2022-09-16T02:03:06.035Z,13.86
2022-09-16T02:06:23.128Z,13.84
2022-09-16T02:09:36.118Z,13.86
2022-09-16T02:12:50.048Z,13.88
2022-09-16T02:16:06.045Z,13.83
2022-09-16T02:19:22.654Z,13.80
2022-09-16T02:22:40.413Z,13.74
2022-09-16T02:25:55.427Z,13.77
2022-09-16T02:29:10.875Z,13.76
2022-09-16T02:32:24.467Z,13.72
2022-09-16T02:35:37.053Z,13.66
2022-09-16T02:38:54.601Z,13.63
2022-09-16T02:42:07.772Z,13.60
2022-09-16T02:45:20.087Z,13.57
2022-09-16T02:48:40.441Z,13.54
2022-09-16T02:51:59.595Z,13.51
2022-09-16T02:55:17.609Z,13.52
2022-09-16T02:58:29.784Z,13.52
2022-09-16T03:01:45.565Z,13.50
2022-09-16T03:04:57.488Z,13.51
2022-09-16T03:08:09.842Z,13.46
2022-09-16T03:11:52.510Z,13.43
2022-09-16T03:15:43.691Z,13.44
2022-09-16T03:19:12.945Z,13.41
2022-09-16T03:22:33.134Z,13.40
2022-09-16T03:25:55.173Z,13.38
2022-09-16T03:29:17.661Z,13.35
2022-09-16T03:32:34.674Z,13.34
2022-09-16T03:35:51.827Z,13.33
2022-09-16T03:39:05.100Z,13.31
2022-09-16T03:42:18.361Z,13.28
2022-09-16T03:45:30.121Z,13.27
2022-09-16T03:48:41.823Z,13.25
2022-09-16T03:51:53.442Z,13.18
2022-09-16T03:55:05.238Z,13.16
2022-09-16T03:58:16.927Z,13.16
2022-09-16T04:01:28.640Z,13.11
2022-09-16T04:04:40.405Z,13.04
2022-09-16T04:07:54.464Z,13.04
2022-09-16T04:11:08.421Z,12.99
2022-09-16T04:14:20.387Z,12.96
2022-09-16T04:17:32.551Z,12.87
2022-09-16T04:20:47.253Z,12.90
2022-09-16T04:23:59.455Z,12.88
2022-09-16T04:27:11.465Z,12.88
2022-09-16T04:30:23.949Z,12.87
2022-09-16T04:33:38.940Z,12.86
2022-09-16T04:36:50.872Z,12.91
2022-09-16T04:40:04.970Z,12.93
2022-09-16T04:43:16.615Z,12.94
2022-09-16T04:46:28.830Z,12.96
2022-09-16T04:49:40.599Z,13.01
2022-09-16T04:52:52.179Z,13.04
2022-09-16T04:56:14.142Z,13.10
2022-09-16T04:59:26.541Z,13.18
2022-09-16T05:02:38.257Z,13.19
2022-09-16T05:05:50.134Z,13.33
2022-09-16T05:09:03.377Z,13.34
2022-09-16T05:12:15.875Z,13.36
2022-09-16T05:15:27.846Z,13.42
2022-09-16T05:18:39.892Z,13.50
2022-09-16T05:21:51.568Z,13.50
2022-09-16T05:25:04.277Z,13.58
2022-09-16T05:28:16.082Z,13.70
2022-09-16T05:31:30.580Z,13.82
2022-09-16T05:34:42.359Z,13.95
2022-09-16T05:37:55.513Z,14.11
2022-09-16T05:41:08.864Z,14.46
2022-09-16T05:44:20.753Z,14.68
2022-09-16T05:47:32.460Z,14.66
2022-09-16T05:50:44.134Z,15.09
2022-09-16T05:53:57.423Z,15.09
2022-09-16T05:57:09.595Z,15.00
2022-09-16T06:00:23.023Z,15.03
2022-09-16T06:03:35.810Z,15.39
2022-09-16T06:06:49.535Z,15.70
2022-09-16T06:10:01.460Z,15.59
2022-09-16T06:13:13.350Z,16.22
2022-09-16T06:16:25.947Z,16.39
2022-09-16T06:19:37.959Z,16.75
2022-09-16T06:22:49.982Z,16.81
2022-09-16T06:26:09.483Z,17.09
2022-09-16T06:29:22.721Z,17.80
2022-09-16T06:32:38.236Z,18.25
2022-09-16T06:35:51.599Z,18.45
2022-09-16T06:39:04.150Z,18.38
2022-09-16T06:42:19.043Z,18.69
2022-09-16T06:45:30.832Z,18.74
2022-09-16T06:48:42.817Z,19.27
2022-09-16T06:51:55.191Z,19.54
2022-09-16T06:55:07.073Z,19.29
2022-09-16T06:58:18.682Z,19.23
2022-09-16T07:01:32.760Z,18.94
2022-09-16T07:04:44.832Z,18.97
2022-09-16T07:07:58.010Z,19.29
2022-09-16T07:11:12.204Z,19.62
2022-09-16T07:14:24.122Z,19.65
2022-09-16T07:17:35.886Z,19.67
2022-09-16T07:20:48.129Z,19.49
2022-09-16T07:24:04.821Z,19.84
2022-09-16T07:27:16.709Z,18.73
2022-09-16T07:30:30.267Z,18.36
2022-09-16T07:33:46.231Z,18.83
2022-09-16T07:36:58.487Z,19.29
2022-09-16T07:40:13.605Z,19.72
2022-09-16T07:43:25.539Z,20.42
2022-09-16T07:46:40.486Z,20.40
2022-09-16T07:49:54.388Z,20.41
2022-09-16T07:53:06.098Z,20.47
2022-09-16T07:56:21.869Z,20.44
2022-09-16T07:59:33.773Z,20.65
2022-09-16T08:02:45.842Z,19.77
2022-09-16T08:05:58.143Z,19.45
2022-09-16T08:09:34.291Z,18.76
2022-09-16T08:12:23.772Z,18.19
2022-09-16T08:15:35.394Z,17.81
2022-09-16T08:18:48.195Z,17.73
2022-09-16T08:22:00.421Z,18.68
2022-09-16T08:25:13.959Z,19.14
2022-09-16T08:28:25.802Z,19.45
2022-09-16T08:31:37.603Z,19.87
2022-09-16T08:34:49.479Z,20.03
2022-09-16T08:38:01.602Z,20.39
2022-09-16T08:41:27.074Z,20.59
2022-09-16T08:44:46.647Z,20.47
2022-09-16T08:48:16.868Z,20.44
2022-09-16T08:51:30.588Z,19.76
2022-09-16T08:54:48.976Z,19.26
2022-09-16T08:58:07.355Z,18.94
2022-09-16T09:01:27.801Z,18.30
2022-09-16T09:04:39.664Z,18.08
2022-09-16T09:08:06.060Z,17.80
2022-09-16T09:11:24.863Z,17.46
2022-09-16T09:14:47.225Z,17.22
2022-09-16T09:18:15.190Z,16.99
2022-09-16T09:21:32.408Z,16.79
2022-09-16T09:25:03.019Z,16.99
2022-09-16T09:28:36.103Z,16.93
2022-09-16T09:31:55.513Z,16.97
2022-09-16T09:35:29.686Z,18.04
2022-09-16T09:38:54.942Z,18.99
2022-09-16T09:42:16.224Z,19.03
2022-09-16T09:45:34.174Z,18.92
2022-09-16T09:48:50.696Z,19.07
2022-09-16T09:52:08.530Z,18.61
2022-09-16T09:55:25.928Z,18.36
2022-09-16T09:58:44.066Z,18.12
2022-09-16T10:02:01.728Z,18.26
2022-09-16T10:05:19.008Z,17.98
2022-09-16T10:08:37.430Z,17.83
2022-09-16T10:11:59.836Z,17.68
2022-09-16T10:15:22.513Z,17.68
2022-09-16T10:18:37.772Z,17.74
2022-09-16T10:21:54.271Z,17.83
2022-09-16T10:25:10.321Z,17.85
2022-09-16T10:28:31.722Z,17.59
2022-09-16T10:31:46.558Z,17.56
2022-09-16T10:34:58.639Z,17.61
2022-09-16T10:38:20.355Z,17.72
2022-09-16T10:41:34.724Z,17.79
2022-09-16T10:44:48.666Z,17.99
2022-09-16T10:48:06.593Z,18.15
2022-09-16T10:51:39.561Z,19.03
2022-09-16T10:54:51.883Z,19.50
2022-09-16T10:58:19.917Z,19.55
2022-09-16T11:01:47.283Z,19.54
2022-09-16T11:05:06.206Z,19.33
2022-09-16T11:08:25.794Z,19.36
2022-09-16T11:11:54.604Z,19.18
2022-09-16T11:15:13.995Z,19.11
2022-09-16T11:18:52.246Z,19.54
2022-09-16T11:22:17.749Z,19.70
2022-09-16T11:25:54.565Z,19.89
2022-09-16T11:29:33.263Z,19.48
2022-09-16T11:33:03.569Z,19.70
2022-09-16T11:36:32.873Z,19.98
2022-09-16T11:40:06.347Z,20.15
2022-09-16T11:43:41.955Z,20.00
2022-09-16T11:47:04.246Z,20.15
2022-09-16T11:50:30.127Z,20.15
2022-09-16T11:53:58.165Z,20.19
2022-09-16T11:57:18.487Z,20.38
2022-09-16T12:00:30.659Z,21.15
2022-09-16T12:03:49.676Z,21.53
2022-09-16T12:07:08.028Z,21.39
2022-09-16T12:10:26.883Z,20.62
2022-09-16T12:13:44.845Z,20.94
2022-09-16T12:17:00.991Z,20.76
2022-09-16T12:20:20.767Z,20.40
2022-09-16T12:23:37.939Z,19.92
2022-09-16T12:26:51.775Z,19.61
2022-09-16T12:30:09.453Z,18.80
2022-09-16T12:33:26.804Z,18.18
2022-09-16T12:36:42.269Z,17.85
2022-09-16T12:39:56.169Z,17.28
2022-09-16T12:43:44.427Z,17.06
2022-09-16T12:47:18.270Z,16.94
2022-09-16T12:51:03.595Z,16.82
2022-09-16T12:55:06.625Z,16.69
2022-09-16T12:58:28.708Z,16.70
2022-09-16T13:01:51.012Z,16.60
2022-09-16T13:05:08.805Z,16.62
2022-09-16T13:08:30.516Z,16.57
2022-09-16T13:12:31.705Z,16.46
2022-09-16T13:15:13.181Z,16.35
2022-09-16T13:18:44.504Z,16.48
2022-09-16T13:22:08.389Z,16.53
2022-09-16T13:25:36.624Z,16.39
2022-09-16T13:28:54.164Z,16.51
2022-09-16T13:32:06.282Z,16.38
2022-09-16T13:35:44.724Z,16.46
2022-09-16T13:39:03.690Z,16.42
2022-09-16T13:42:26.172Z,16.44
2022-09-16T13:45:48.889Z,16.56
2022-09-16T13:49:25.042Z,16.67
2022-09-16T13:53:03.936Z,16.79
2022-09-16T13:56:39.084Z,16.79
2022-09-16T14:00:17.956Z,16.78
2022-09-16T14:03:53.505Z,16.74
2022-09-16T14:07:25.746Z,16.73
2022-09-16T14:10:46.841Z,16.60
2022-09-16T14:14:46.400Z,16.60
2022-09-16T14:17:51.468Z,16.62
2022-09-16T14:21:36.289Z,16.66
2022-09-16T14:28:44.791Z,16.93
2022-09-16T14:32:10.357Z,16.93
2022-09-16T14:35:27.302Z,16.93
2022-09-16T14:38:53.603Z,16.87
2022-09-16T14:42:11.287Z,16.81
2022-09-16T14:45:33.934Z,16.81
2022-09-16T14:49:04.045Z,16.89
2022-09-16T14:52:26.522Z,16.99
2022-09-16T14:55:40.607Z,17.03
2022-09-16T14:58:53.771Z,16.94
2022-09-16T15:02:10.117Z,16.91
2022-09-16T15:05:30.684Z,16.84
2022-09-16T15:08:47.690Z,16.86
2022-09-16T15:12:03.914Z,16.87
2022-09-16T15:15:25.293Z,16.83
2022-09-16T15:18:39.758Z,16.77
2022-09-16T15:21:52.364Z,16.79
2022-09-16T15:25:05.495Z,16.84
2022-09-16T15:28:25.711Z,16.86
2022-09-16T15:31:41.089Z,16.84
2022-09-16T15:34:55.297Z,16.83
2022-09-16T15:38:24.615Z,16.79
2022-09-16T15:41:36.841Z,16.80
2022-09-16T15:44:56.527Z,16.78
2022-09-16T15:48:14.209Z,16.79
2022-09-16T15:51:36.395Z,16.65
2022-09-16T15:54:55.829Z,16.62
2022-09-16T15:58:14.569Z,16.55
2022-09-16T16:01:41.377Z,16.54
2022-09-16T16:04:53.509Z,16.50
2022-09-16T16:08:10.084Z,16.50
2022-09-16T16:11:25.677Z,16.46
2022-09-16T16:14:39.423Z,16.40
2022-09-16T16:17:53.334Z,16.34
2022-09-16T16:21:08.697Z,16.31
2022-09-16T16:24:20.745Z,16.32
2022-09-16T16:27:34.654Z,16.23
2022-09-16T16:30:46.567Z,16.19
2022-09-16T16:33:58.432Z,16.12
2022-09-16T16:37:27.926Z,16.01
2022-09-16T16:40:27.023Z,15.98
2022-09-16T16:43:38.887Z,15.93
2022-09-16T16:46:50.619Z,15.74
2022-09-16T16:50:02.294Z,15.71
2022-09-16T16:53:14.130Z,15.66
2022-09-16T16:56:26.394Z,15.60
2022-09-16T16:59:38.189Z,15.57
2022-09-16T17:02:50.453Z,15.52
2022-09-16T17:06:02.340Z,15.38
2022-09-16T17:09:17.040Z,15.33
2022-09-16T17:12:28.835Z,15.30
2022-09-16T17:15:41.337Z,15.20
2022-09-16T17:18:54.780Z,15.20
2022-09-16T17:22:06.517Z,15.07
2022-09-16T17:25:18.632Z,15.13
2022-09-16T17:28:30.685Z,15.12
2022-09-16T17:31:43.529Z,15.00
2022-09-16T17:34:55.345Z,14.96
2022-09-16T17:38:07.859Z,14.96
2022-09-16T17:41:22.507Z,14.97
2022-09-16T17:44:34.737Z,14.99
2022-09-16T17:47:46.572Z,15.03
2022-09-16T17:51:00.153Z,15.07
2022-09-16T17:54:12.850Z,15.09
2022-09-16T17:57:27.989Z,15.08
2022-09-16T18:00:40.428Z,15.09
2022-09-16T18:03:55.762Z,15.08
2022-09-16T18:07:07.789Z,15.07
2022-09-16T18:10:20.009Z,15.05
2022-09-16T18:13:31.963Z,14.91
2022-09-16T18:16:45.545Z,14.99
2022-09-16T18:19:57.369Z,14.96
2022-09-16T18:23:09.383Z,14.92
2022-09-16T18:26:22.937Z,14.86
2022-09-16T18:29:35.663Z,14.83
2022-09-16T18:32:50.564Z,14.78
2022-09-16T18:36:08.735Z,14.76
2022-09-16T18:39:22.108Z,14.75
2022-09-16T18:42:34.277Z,14.75
2022-09-16T18:45:46.506Z,14.75
2022-09-16T18:48:59.974Z,14.72
2022-09-16T18:52:20.510Z,14.66
2022-09-16T18:55:44.435Z,14.62
2022-09-16T18:59:19.988Z,14.62
2022-09-16T19:02:15.034Z,14.51
2022-09-16T19:05:27.511Z,14.43
2022-09-16T19:08:40.168Z,14.31
2022-09-16T19:12:01.533Z,14.20
2022-09-16T19:15:16.629Z,14.11
2022-09-16T19:18:28.782Z,14.08
2022-09-16T19:21:42.171Z,14.03
2022-09-16T19:24:57.084Z,13.96
2022-09-16T19:28:10.697Z,13.86
2022-09-16T19:31:23.582Z,13.84
2022-09-16T19:34:35.746Z,13.79
2022-09-16T19:37:51.180Z,13.70
2022-09-16T19:41:10.915Z,13.65
2022-09-16T19:44:23.808Z,13.63
2022-09-16T19:47:36.622Z,13.61
2022-09-16T19:50:50.349Z,13.57
2022-09-16T19:54:03.132Z,13.52
2022-09-16T19:57:14.920Z,13.50
2022-09-16T20:00:36.712Z,13.51
2022-09-16T20:03:44.068Z,13.54
2022-09-16T20:06:56.424Z,13.59
2022-09-16T20:10:09.140Z,13.59
2022-09-16T20:13:20.822Z,13.58
2022-09-16T20:16:35.750Z,13.59
2022-09-16T20:19:47.866Z,13.63
2022-09-16T20:22:59.768Z,13.65
2022-09-16T20:26:15.101Z,13.68
2022-09-16T20:29:30.023Z,13.70
2022-09-16T20:32:41.699Z,13.72
2022-09-16T20:35:53.306Z,13.69
2022-09-16T20:39:06.180Z,13.66
2022-09-16T20:42:17.982Z,13.66
2022-09-16T20:45:29.907Z,13.63
2022-09-16T20:48:42.486Z,13.61
2022-09-16T20:51:54.553Z,13.57
2022-09-16T20:55:06.447Z,13.50
2022-09-16T20:58:18.349Z,13.45
2022-09-16T21:01:32.730Z,13.35
2022-09-16T21:04:44.569Z,13.29
2022-09-16T21:07:56.431Z,13.16
2022-09-16T21:11:15.611Z,13.09
2022-09-16T21:14:27.611Z,13.03
2022-09-16T21:17:39.479Z,12.94
2022-09-16T21:20:51.287Z,12.85
2022-09-16T21:24:06.665Z,12.85
2022-09-16T21:27:18.306Z,12.74
2022-09-16T21:30:30.761Z,12.80
2022-09-16T21:33:44.715Z,12.78
2022-09-16T21:36:59.389Z,12.77
2022-09-16T21:40:14.216Z,12.75
2022-09-16T21:43:29.881Z,12.72
2022-09-16T21:46:45.428Z,12.67
2022-09-16T21:49:59.146Z,12.66
2022-09-16T21:53:10.803Z,12.64
2022-09-16T21:56:25.941Z,12.60
2022-09-16T21:59:37.771Z,12.53
2022-09-16T22:02:49.520Z,12.48
2022-09-16T22:06:04.919Z,12.47
2022-09-16T22:09:18.115Z,12.40
2022-09-16T22:12:29.987Z,12.36
2022-09-16T22:15:42.572Z,12.35
2022-09-16T22:18:54.702Z,12.33
2022-09-16T22:22:06.296Z,12.32
2022-09-16T22:25:18.448Z,12.27
2022-09-16T22:28:30.157Z,12.21
2022-09-16T22:31:44.642Z,12.21
2022-09-16T22:34:56.472Z,12.19
2022-09-16T22:38:08.442Z,12.17
2022-09-16T22:41:21.651Z,12.13
2022-09-16T22:44:33.406Z,12.09
2022-09-16T22:47:45.346Z,11.89
2022-09-16T22:51:04.003Z,11.93
2022-09-16T22:54:17.607Z,11.89
2022-09-16T22:57:29.815Z,11.87
2022-09-16T23:00:41.588Z,11.85
2022-09-16T23:03:58.057Z,11.82
2022-09-16T23:07:10.310Z,11.80
2022-09-16T23:10:22.210Z,11.81
2022-09-16T23:13:34.055Z,11.82
2022-09-16T23:16:46.013Z,11.82
2022-09-16T23:19:57.875Z,11.86
2022-09-16T23:23:10.118Z,11.87
2022-09-16T23:26:24.178Z,11.87
2022-09-16T23:29:35.901Z,11.89
2022-09-16T23:32:47.680Z,11.88
2022-09-16T23:35:59.776Z,11.86
2022-09-16T23:39:13.502Z,11.84
2022-09-16T23:42:25.500Z,11.83
2022-09-16T23:45:37.224Z,11.84
2022-09-16T23:48:50.965Z,11.82
2022-09-16T23:52:02.567Z,11.80
2022-09-16T23:55:16.276Z,11.76
2022-09-16T23:58:28.531Z,11.74
